createdAt,value
2019-02-04T00:01:31.665Z,13.89
2019-02-04T00:04:01.253Z,13.94
2019-02-04T00:06:30.884Z,13.99
2019-02-04T00:09:00.443Z,13.85
2019-02-04T00:11:30.164Z,13.85
2019-02-04T00:13:59.794Z,13.94
2019-02-04T00:16:40.351Z,13.92
2019-02-04T00:19:01.154Z,14.08
2019-02-04T00:21:30.710Z,14.06
2019-02-04T00:24:00.361Z,14.08
2019-02-04T00:26:29.964Z,14.02
2019-02-04T00:28:59.586Z,13.90
2019-02-04T00:31:29.282Z,13.77
2019-02-04T00:33:59.032Z,13.68
2019-02-04T00:36:28.700Z,13.60
2019-02-04T00:38:58.306Z,13.50
2019-02-04T00:41:28.033Z,13.35
2019-02-04T00:43:57.926Z,13.31
2019-02-04T00:46:27.605Z,13.35
2019-02-04T00:48:57.253Z,13.29
2019-02-04T00:51:26.815Z,13.14
2019-02-04T00:53:56.468Z,13.01
2019-02-04T00:56:26.105Z,12.96
2019-02-04T00:58:55.722Z,12.79
2019-02-04T01:01:25.413Z,12.64
2019-02-04T01:03:55.009Z,12.44
2019-02-04T01:06:24.606Z,12.34
2019-02-04T01:08:55.153Z,12.28
2019-02-04T01:11:26.495Z,12.24
2019-02-04T01:13:56.132Z,12.11
2019-02-04T01:16:25.915Z,12.06
2019-02-04T01:18:55.475Z,12.05
2019-02-04T01:21:25.120Z,11.93
2019-02-04T01:23:54.766Z,11.84
2019-02-04T01:26:24.319Z,11.80
2019-02-04T01:28:53.965Z,11.65
2019-02-04T01:31:23.478Z,11.49
2019-02-04T01:33:53.138Z,11.39
2019-02-04T01:36:22.764Z,11.28
2019-02-04T01:38:52.727Z,11.32
2019-02-04T01:41:22.350Z,11.29
2019-02-04T01:43:52.028Z,11.28
2019-02-04T01:46:21.674Z,11.29
2019-02-04T01:48:51.329Z,11.28
2019-02-04T01:51:20.856Z,11.14
2019-02-04T01:53:50.645Z,11.16
2019-02-04T01:56:20.403Z,11.23
2019-02-04T01:58:50.057Z,11.27
2019-02-04T02:01:19.667Z,11.26
2019-02-04T02:03:49.238Z,11.21
2019-02-04T02:06:18.978Z,11.17
2019-02-04T02:08:48.524Z,11.11
2019-02-04T02:11:18.134Z,10.99
2019-02-04T02:13:47.706Z,11.04
2019-02-04T02:16:17.268Z,11.02
2019-02-04T02:18:46.786Z,11.08
2019-02-04T02:21:17.674Z,11.00
2019-02-04T02:23:47.362Z,11.02
2019-02-04T02:26:17.002Z,11.01
2019-02-04T02:28:46.581Z,11.04
2019-02-04T02:31:16.318Z,11.10
2019-02-04T02:33:46.104Z,11.13
2019-02-04T02:36:15.620Z,11.14
2019-02-04T02:38:45.356Z,11.20
2019-02-04T02:41:14.922Z,11.19
2019-02-04T02:43:44.447Z,11.17
2019-02-04T02:46:14.174Z,11.07
2019-02-04T02:48:44.020Z,11.01
2019-02-04T02:51:13.683Z,10.91
2019-02-04T02:53:43.364Z,10.86
2019-02-04T02:56:13.004Z,10.84
2019-02-04T02:58:42.680Z,10.85
2019-02-04T03:01:12.310Z,10.91
2019-02-04T03:03:42.200Z,10.89
2019-02-04T03:06:11.853Z,10.95
2019-02-04T03:08:41.371Z,10.96
2019-02-04T03:11:11.075Z,10.97
2019-02-04T03:13:40.848Z,10.89
2019-02-04T03:16:11.063Z,10.83
2019-02-04T03:18:40.668Z,10.68
2019-02-04T03:21:10.287Z,10.64
2019-02-04T03:23:39.926Z,10.59
2019-02-04T03:26:09.707Z,10.51
2019-02-04T03:28:39.323Z,10.44
2019-02-04T03:31:09.170Z,10.33
2019-02-04T03:33:38.728Z,10.25
2019-02-04T03:36:08.365Z,10.23
2019-02-04T03:38:37.944Z,10.23
2019-02-04T03:41:07.519Z,10.20
2019-02-04T03:43:37.206Z,10.15
2019-02-04T03:46:06.975Z,10.07
2019-02-04T03:48:36.521Z,10.00
2019-02-04T03:51:06.118Z,9.96
2019-02-04T03:53:35.798Z,9.87
2019-02-04T03:56:05.450Z,9.83
2019-02-04T03:58:35.623Z,9.73
2019-02-04T04:01:05.294Z,9.68
2019-02-04T04:03:34.948Z,9.66
2019-02-04T04:06:04.653Z,9.62
2019-02-04T04:08:34.393Z,9.55
2019-02-04T04:11:04.074Z,9.51
2019-02-04T04:13:33.730Z,9.48
2019-02-04T04:16:03.391Z,9.50
2019-02-04T04:18:32.955Z,9.45
2019-02-04T04:21:02.560Z,9.45
2019-02-04T04:23:32.211Z,9.39
2019-02-04T04:26:02.289Z,9.37
2019-02-04T04:28:31.888Z,9.35
2019-02-04T04:31:01.590Z,9.31
2019-02-04T04:33:31.261Z,9.34
2019-02-04T04:36:00.898Z,9.28
2019-02-04T04:38:30.474Z,9.28
2019-02-04T04:41:00.256Z,9.30
2019-02-04T04:43:29.994Z,9.28
2019-02-04T04:45:59.626Z,9.20
2019-02-04T04:48:29.380Z,9.10
2019-02-04T04:50:59.045Z,9.04
2019-02-04T04:53:28.771Z,8.98
2019-02-04T04:55:58.438Z,8.96
2019-02-04T04:58:28.083Z,9.03
2019-02-04T05:00:57.669Z,9.10
2019-02-04T05:03:27.327Z,9.20
2019-02-04T05:05:56.855Z,9.36
2019-02-04T05:08:27.023Z,9.47
2019-02-04T05:10:56.806Z,9.52
2019-02-04T05:13:26.422Z,9.60
2019-02-04T05:15:56.072Z,9.61
2019-02-04T05:18:25.602Z,9.58
2019-02-04T05:20:55.286Z,9.56
2019-02-04T05:23:25.045Z,9.55
2019-02-04T05:25:54.684Z,9.48
2019-02-04T05:28:24.296Z,9.38
2019-02-04T05:30:54.075Z,9.29
2019-02-04T05:33:23.717Z,9.23
2019-02-04T05:35:53.596Z,9.21
2019-02-04T05:38:23.218Z,9.20
2019-02-04T05:40:52.758Z,9.20
2019-02-04T05:43:22.411Z,9.10
2019-02-04T05:45:51.958Z,9.00
2019-02-04T05:48:21.592Z,9.01
2019-02-04T05:50:51.466Z,9.08
2019-02-04T05:53:21.071Z,9.14
2019-02-04T05:55:50.766Z,9.22
2019-02-04T05:58:20.414Z,9.31
2019-02-04T06:00:51.479Z,9.40
2019-02-04T06:03:21.125Z,9.50
2019-02-04T06:05:50.753Z,9.57
2019-02-04T06:08:20.442Z,9.71
2019-02-04T06:10:49.990Z,9.87
2019-02-04T06:13:19.539Z,10.11
2019-02-04T06:15:49.091Z,10.41
2019-02-04T06:18:19.060Z,10.70
2019-02-04T06:20:48.650Z,10.95
2019-02-04T06:23:19.194Z,11.14
2019-02-04T06:25:48.859Z,11.15
2019-02-04T06:28:18.403Z,11.05
2019-02-04T06:30:47.968Z,11.08
2019-02-04T06:33:17.574Z,11.15
2019-02-04T06:35:47.192Z,11.20
2019-02-04T06:38:16.869Z,11.18
2019-02-04T06:40:46.429Z,11.28
2019-02-04T06:43:16.206Z,11.41
2019-02-04T06:45:46.195Z,11.54
2019-02-04T06:48:15.804Z,11.69
2019-02-04T06:50:45.367Z,11.89
2019-02-04T06:53:14.916Z,12.05
2019-02-04T06:55:44.545Z,12.29
2019-02-04T06:58:14.230Z,12.45
2019-02-04T07:00:44.190Z,12.62
2019-02-04T07:03:13.855Z,12.84
2019-02-04T07:05:44.198Z,13.05
2019-02-04T07:08:13.943Z,13.31
2019-02-04T07:10:43.639Z,13.50
2019-02-04T07:13:13.320Z,13.71
2019-02-04T07:15:43.044Z,13.91
2019-02-04T07:18:12.628Z,13.97
2019-02-04T07:20:42.328Z,13.95
2019-02-04T07:23:11.864Z,14.03
2019-02-04T07:25:41.487Z,14.07
2019-02-04T07:28:11.366Z,14.05
2019-02-04T07:30:40.920Z,14.11
2019-02-04T07:33:10.487Z,14.19
2019-02-04T07:35:40.222Z,14.23
2019-02-04T07:38:09.902Z,14.34
2019-02-04T07:40:39.536Z,14.35
2019-02-04T07:43:09.079Z,14.33
2019-02-04T07:45:38.630Z,14.32
2019-02-04T07:48:08.341Z,14.61
2019-02-04T07:50:38.157Z,14.78
2019-02-04T07:53:07.851Z,14.75
2019-02-04T07:55:37.569Z,14.86
2019-02-04T07:58:07.512Z,15.04
2019-02-04T08:00:37.091Z,15.20
2019-02-04T08:03:06.729Z,15.36
2019-02-04T08:05:36.403Z,15.35
2019-02-04T08:08:06.052Z,15.36
2019-02-04T08:10:35.616Z,15.53
2019-02-04T08:13:05.450Z,15.58
2019-02-04T08:15:36.935Z,15.68
2019-02-04T08:18:07.459Z,15.70
2019-02-04T08:20:37.118Z,15.71
2019-02-04T08:23:06.672Z,15.74
2019-02-04T08:25:36.309Z,15.84
2019-02-04T08:28:05.967Z,15.90
2019-02-04T08:30:38.373Z,15.86
2019-02-04T08:33:08.171Z,16.02
2019-02-04T08:35:37.693Z,16.15
2019-02-04T08:38:07.384Z,16.17
2019-02-04T08:40:37.472Z,16.40
2019-02-04T08:43:07.219Z,16.44
2019-02-04T08:45:36.786Z,16.61
2019-02-04T08:48:06.485Z,16.73
2019-02-04T08:50:36.093Z,16.93
2019-02-04T08:53:05.851Z,16.95
2019-02-04T08:55:36.139Z,17.01
2019-02-04T08:58:06.194Z,17.06
2019-02-04T09:00:35.869Z,17.15
2019-02-04T09:03:05.600Z,17.34
2019-02-04T09:05:35.163Z,17.52
2019-02-04T09:08:04.866Z,17.65
2019-02-04T09:10:35.017Z,17.87
2019-02-04T09:13:04.560Z,18.05
2019-02-04T09:15:34.187Z,18.22
2019-02-04T09:18:03.975Z,18.29
2019-02-04T09:20:33.640Z,18.53
2019-02-04T09:23:06.076Z,18.69
2019-02-04T09:25:34.724Z,19.03
2019-02-04T09:28:04.400Z,19.20
2019-02-04T09:30:34.054Z,19.02
2019-02-04T09:33:03.658Z,19.07
2019-02-04T09:35:33.193Z,19.08
2019-02-04T09:38:03.349Z,19.04
2019-02-04T09:40:35.999Z,19.26
2019-02-04T09:43:05.566Z,19.69
2019-02-04T09:45:35.180Z,20.28
2019-02-04T09:48:05.678Z,20.93
2019-02-04T09:50:35.508Z,21.71
2019-02-04T09:53:05.193Z,22.20
2019-02-04T09:55:36.340Z,22.29
2019-02-04T09:58:06.237Z,22.37
2019-02-04T10:00:36.019Z,22.94
2019-02-04T10:03:05.999Z,23.34
2019-02-04T10:05:35.560Z,23.55
2019-02-04T10:08:05.752Z,23.61
2019-02-04T10:10:35.395Z,23.58
2019-02-04T10:13:05.362Z,23.85
2019-02-04T10:15:36.983Z,24.48
2019-02-04T10:18:07.570Z,25.01
2019-02-04T10:20:37.574Z,25.32
2019-02-04T10:23:07.642Z,25.48
2019-02-04T10:25:39.039Z,25.56
2019-02-04T10:28:09.340Z,25.01
2019-02-04T10:30:38.850Z,24.95
2019-02-04T10:33:08.394Z,25.47
2019-02-04T10:35:37.918Z,25.78
2019-02-04T10:38:07.501Z,25.67
2019-02-04T10:40:37.039Z,25.32
2019-02-04T10:43:06.616Z,25.26
2019-02-04T10:45:36.191Z,25.27
2019-02-04T10:48:05.857Z,25.50
2019-02-04T10:50:45.863Z,25.47
2019-02-04T10:53:09.350Z,26.01
2019-02-04T10:55:39.047Z,25.93
2019-02-04T10:58:10.333Z,26.08
2019-02-04T11:00:41.477Z,26.09
2019-02-04T11:03:11.064Z,26.14
2019-02-04T11:05:40.665Z,26.20
2019-02-04T11:08:11.354Z,25.95
2019-02-04T11:10:41.008Z,25.66
2019-02-04T11:13:15.341Z,25.80
2019-02-04T11:15:45.572Z,25.56
2019-02-04T11:18:15.702Z,26.00
2019-02-04T11:20:57.228Z,26.38
2019-02-04T11:23:16.681Z,27.17
2019-02-04T11:25:46.290Z,27.48
2019-02-04T11:28:16.670Z,27.65
2019-02-04T11:30:52.183Z,27.57
2019-02-04T11:33:22.046Z,27.88
2019-02-04T11:35:51.746Z,27.80
2019-02-04T11:38:21.398Z,27.41
2019-02-04T11:40:51.147Z,27.13
2019-02-04T11:43:20.833Z,26.58
2019-02-04T11:45:50.463Z,27.10
2019-02-04T11:48:20.079Z,27.69
2019-02-04T11:50:49.745Z,28.39
2019-02-04T11:53:19.398Z,29.40
2019-02-04T11:55:49.565Z,29.98
2019-02-04T11:58:19.153Z,30.07
2019-02-04T12:00:48.808Z,29.47
2019-02-04T12:03:18.484Z,29.41
2019-02-04T12:05:48.055Z,28.99
2019-02-04T12:08:19.490Z,28.12
2019-02-04T12:11:15.818Z,26.93
2019-02-04T12:13:45.695Z,25.16
2019-02-04T12:16:15.461Z,24.23
2019-02-04T12:18:45.289Z,23.67
2019-02-04T12:21:21.724Z,23.08
2019-02-04T12:23:46.228Z,22.56
2019-02-04T12:26:15.795Z,22.07
2019-02-04T12:28:45.348Z,21.72
2019-02-04T12:31:15.010Z,21.41
2019-02-04T12:33:44.695Z,21.13
2019-02-04T12:36:14.684Z,20.98
2019-02-04T12:38:44.321Z,20.79
2019-02-04T12:41:13.880Z,20.74
2019-02-04T12:43:43.448Z,20.61
2019-02-04T12:46:13.052Z,20.49
2019-02-04T12:48:42.883Z,20.42
2019-02-04T12:51:12.666Z,20.28
2019-02-04T12:53:42.208Z,20.22
2019-02-04T12:56:11.815Z,20.17
2019-02-04T12:58:41.338Z,20.18
2019-02-04T13:01:11.004Z,20.19
2019-02-04T13:03:40.572Z,20.19
2019-02-04T13:06:11.384Z,20.16
2019-02-04T13:08:41.052Z,20.14
2019-02-04T13:11:10.675Z,20.16
2019-02-04T13:13:40.364Z,20.09
2019-02-04T13:16:10.192Z,20.03
2019-02-04T13:18:39.910Z,19.94
2019-02-04T13:21:10.008Z,19.80
2019-02-04T13:23:39.653Z,19.70
2019-02-04T13:26:09.229Z,19.48
2019-02-04T13:28:39.148Z,19.41
2019-02-04T13:31:08.757Z,19.30
2019-02-04T13:33:38.387Z,19.08
2019-02-04T13:36:08.071Z,18.95
2019-02-04T13:38:37.637Z,18.81
2019-02-04T13:41:09.280Z,18.72
2019-02-04T13:43:38.703Z,18.60
2019-02-04T13:46:08.292Z,18.38
2019-02-04T13:48:37.847Z,18.26
2019-02-04T13:51:07.464Z,18.13
2019-02-04T13:53:37.124Z,17.94
2019-02-04T13:56:06.664Z,17.82
2019-02-04T13:58:36.300Z,17.77
2019-02-04T14:01:06.086Z,17.67
2019-02-04T14:03:35.733Z,17.60
2019-02-04T14:06:05.260Z,17.52
2019-02-04T14:08:34.822Z,17.40
2019-02-04T14:11:04.758Z,17.32
2019-02-04T14:13:34.350Z,17.19
2019-02-04T14:16:04.162Z,17.09
2019-02-04T14:18:33.788Z,17.01
2019-02-04T14:21:03.602Z,16.86
2019-02-04T14:23:33.225Z,16.79
2019-02-04T14:26:02.876Z,16.65
2019-02-04T14:28:32.524Z,16.53
2019-02-04T14:31:02.208Z,16.44
2019-02-04T14:33:31.926Z,16.36
2019-02-04T14:36:03.305Z,16.19
2019-02-04T14:38:33.516Z,16.10
2019-02-04T14:41:03.194Z,15.98
2019-02-04T14:43:41.494Z,15.86
2019-02-04T14:46:40.756Z,15.76
2019-02-04T14:49:47.488Z,15.63
2019-02-04T14:52:34.529Z,15.48
2019-02-04T14:55:52.269Z,15.32
2019-02-04T14:58:58.030Z,15.19
2019-02-04T15:02:00.812Z,15.10
2019-02-04T15:05:14.725Z,14.93
2019-02-04T15:08:43.214Z,14.78
2019-02-04T15:11:34.389Z,14.71
2019-02-04T15:14:31.097Z,14.64
2019-02-04T15:17:25.081Z,14.54
2019-02-04T15:20:39.843Z,14.45
2019-02-04T15:23:45.634Z,14.41
2019-02-04T15:27:12.627Z,14.32
2019-02-04T15:30:14.518Z,14.17
2019-02-04T15:33:24.296Z,14.00
2019-02-04T15:36:50.091Z,13.89
2019-02-04T15:39:35.687Z,13.86
2019-02-04T15:42:36.414Z,13.76
2019-02-04T15:45:34.149Z,13.70
2019-02-04T15:48:11.463Z,13.65
2019-02-04T15:51:01.018Z,13.61
2019-02-04T15:53:30.644Z,13.68
2019-02-04T15:56:01.009Z,13.60
2019-02-04T15:58:30.963Z,13.57
2019-02-04T16:01:00.609Z,13.53
2019-02-04T16:03:30.306Z,13.45
2019-02-04T16:05:59.894Z,13.41
2019-02-04T16:08:29.440Z,13.31
2019-02-04T16:10:59.075Z,13.29
2019-02-04T16:13:28.809Z,13.27
2019-02-04T16:15:58.462Z,13.22
2019-02-04T16:18:28.128Z,13.24
2019-02-04T16:20:57.790Z,13.20
2019-02-04T16:23:27.359Z,13.23
2019-02-04T16:25:56.914Z,13.22
2019-02-04T16:28:26.571Z,13.21
2019-02-04T16:30:56.370Z,13.15
2019-02-04T16:33:26.024Z,13.08
2019-02-04T16:35:55.594Z,13.08
2019-02-04T16:38:25.228Z,13.04
2019-02-04T16:40:55.014Z,13.02
2019-02-04T16:43:24.576Z,13.00
2019-02-04T16:45:54.249Z,13.03
2019-02-04T16:48:23.845Z,13.04
2019-02-04T16:51:10.499Z,13.06
2019-02-04T16:53:24.938Z,13.02
2019-02-04T16:55:54.922Z,12.98
2019-02-04T16:58:24.513Z,12.94
2019-02-04T17:00:54.249Z,12.93
2019-02-04T17:03:23.930Z,12.89
2019-02-04T17:05:53.477Z,12.84
2019-02-04T17:08:23.143Z,12.82
2019-02-04T17:10:53.106Z,12.82
2019-02-04T17:13:22.638Z,12.77
2019-02-04T17:15:52.287Z,12.74
2019-02-04T17:18:21.963Z,12.72
2019-02-04T17:20:51.613Z,12.70
2019-02-04T17:23:22.665Z,12.65
2019-02-04T17:25:52.420Z,12.61
2019-02-04T17:28:21.966Z,12.64
2019-02-04T17:30:51.569Z,12.56
2019-02-04T17:33:21.158Z,12.54
2019-02-04T17:35:50.785Z,12.50
2019-02-04T17:38:20.716Z,12.47
2019-02-04T17:40:50.290Z,12.40
2019-02-04T17:43:19.907Z,12.41
2019-02-04T17:45:49.459Z,12.37
2019-02-04T17:48:19.133Z,12.31
2019-02-04T17:50:48.696Z,12.30
2019-02-04T17:53:18.674Z,12.29
2019-02-04T17:55:48.337Z,12.24
2019-02-04T17:58:17.977Z,12.32
2019-02-04T18:00:50.540Z,12.27
2019-02-04T18:03:20.157Z,12.23
2019-02-04T18:05:49.813Z,12.17
2019-02-04T18:08:19.466Z,12.16
2019-02-04T18:10:49.036Z,12.15
2019-02-04T18:13:18.603Z,12.13
2019-02-04T18:15:48.200Z,12.14
2019-02-04T18:18:17.929Z,12.14
2019-02-04T18:20:47.864Z,12.13
2019-02-04T18:23:17.479Z,12.08
2019-02-04T18:25:47.116Z,12.08
2019-02-04T18:28:16.733Z,12.06
2019-02-04T18:30:46.270Z,12.07
2019-02-04T18:33:15.850Z,12.06
2019-02-04T18:35:45.431Z,12.03
2019-02-04T18:38:15.027Z,12.01
2019-02-04T18:40:44.838Z,12.00
2019-02-04T18:43:14.623Z,11.98
2019-02-04T18:45:44.160Z,11.95
2019-02-04T18:48:13.904Z,11.93
2019-02-04T18:50:43.846Z,11.90
2019-02-04T18:53:13.481Z,11.91
2019-02-04T18:55:43.123Z,11.92
2019-02-04T18:58:12.852Z,11.89
2019-02-04T19:00:42.395Z,11.87
2019-02-04T19:03:17.291Z,11.86
2019-02-04T19:05:43.268Z,11.81
2019-02-04T19:08:12.947Z,11.78
2019-02-04T19:10:42.489Z,11.73
2019-02-04T19:13:12.190Z,11.68
2019-02-04T19:15:42.155Z,11.62
2019-02-04T19:18:14.414Z,11.58
2019-02-04T19:20:44.135Z,11.53
2019-02-04T19:23:13.743Z,11.49
2019-02-04T19:25:43.536Z,11.43
2019-02-04T19:28:13.271Z,11.38
2019-02-04T19:31:07.751Z,11.34
2019-02-04T19:33:37.321Z,11.28
2019-02-04T19:36:08.353Z,11.23
2019-02-04T19:38:37.959Z,11.15
2019-02-04T19:41:07.620Z,11.13
2019-02-04T19:43:37.330Z,11.08
2019-02-04T19:46:06.978Z,11.03
2019-02-04T19:48:36.645Z,10.98
2019-02-04T19:51:06.302Z,10.94
2019-02-04T19:53:36.342Z,10.87
2019-02-04T19:56:06.079Z,10.81
2019-02-04T19:58:35.750Z,10.72
2019-02-04T20:01:05.507Z,10.67
2019-02-04T20:03:37.075Z,10.60
2019-02-04T20:06:07.272Z,10.58
2019-02-04T20:08:37.013Z,10.56
2019-02-04T20:11:06.650Z,10.53
2019-02-04T20:13:36.346Z,10.54
2019-02-04T20:16:06.010Z,10.48
2019-02-04T20:18:35.629Z,10.44
2019-02-04T20:21:05.167Z,10.40
2019-02-04T20:23:34.716Z,10.39
2019-02-04T20:26:04.351Z,10.37
2019-02-04T20:28:34.063Z,10.37
2019-02-04T20:31:03.640Z,10.32
2019-02-04T20:33:33.206Z,10.20
2019-02-04T20:36:02.832Z,10.08
2019-02-04T20:38:32.449Z,10.05
2019-02-04T20:41:02.096Z,10.01
2019-02-04T20:43:31.706Z,9.99
2019-02-04T20:46:01.265Z,9.95
2019-02-04T20:48:30.802Z,9.94
2019-02-04T20:51:00.557Z,9.92
2019-02-04T20:53:30.235Z,9.89
2019-02-04T20:55:59.936Z,9.85
2019-02-04T20:58:29.478Z,9.83
2019-02-04T21:00:59.193Z,9.82
2019-02-04T21:03:28.822Z,9.79
2019-02-04T21:05:58.381Z,9.75
2019-02-04T21:08:28.086Z,9.81
2019-02-04T21:10:57.630Z,9.84
2019-02-04T21:13:27.290Z,9.90
2019-02-04T21:15:57.035Z,9.91
2019-02-04T21:18:26.711Z,9.92
2019-02-04T21:20:56.322Z,9.97
2019-02-04T21:23:25.964Z,10.09
2019-02-04T21:25:55.513Z,10.12
2019-02-04T21:28:25.158Z,10.14
2019-02-04T21:30:54.850Z,10.14
2019-02-04T21:33:24.414Z,10.18
2019-02-04T21:35:54.274Z,10.30
2019-02-04T21:38:25.706Z,10.35
2019-02-04T21:40:55.438Z,10.39
2019-02-04T21:43:25.004Z,10.38
2019-02-04T21:45:54.559Z,10.44
2019-02-04T21:48:24.222Z,10.46
2019-02-04T21:50:53.772Z,10.48
2019-02-04T21:53:23.520Z,10.40
2019-02-04T21:55:53.150Z,10.39
2019-02-04T21:58:22.818Z,10.40
2019-02-04T22:00:52.460Z,10.39
2019-02-04T22:03:22.215Z,10.42
2019-02-04T22:05:51.860Z,10.47
2019-02-04T22:08:21.435Z,10.44
2019-02-04T22:10:51.587Z,10.46
2019-02-04T22:13:21.259Z,10.43
2019-02-04T22:15:51.219Z,10.45
2019-02-04T22:18:20.939Z,10.48
2019-02-04T22:20:50.858Z,10.46
2019-02-04T22:23:20.446Z,10.44
2019-02-04T22:25:50.283Z,10.43
2019-02-04T22:28:19.940Z,10.37
2019-02-04T22:30:49.988Z,10.37
2019-02-04T22:33:19.598Z,10.30
2019-02-04T22:35:49.473Z,10.18
2019-02-04T22:38:19.279Z,10.05
2019-02-04T22:40:49.057Z,10.03
2019-02-04T22:43:18.744Z,9.98
2019-02-04T22:45:48.380Z,9.96
2019-02-04T22:48:18.151Z,9.97
2019-02-04T22:50:47.886Z,9.97
2019-02-04T22:53:17.524Z,9.93
2019-02-04T22:55:47.156Z,9.91
2019-02-04T22:58:16.854Z,9.91
2019-02-04T23:01:31.957Z,9.88
2019-02-04T23:04:01.559Z,9.82
2019-02-04T23:06:31.232Z,9.69
2019-02-04T23:09:01.250Z,9.66
2019-02-04T23:11:30.864Z,9.51
2019-02-04T23:14:00.548Z,9.51
2019-02-04T23:16:30.245Z,9.48
2019-02-04T23:18:59.832Z,9.50
2019-02-04T23:21:29.623Z,9.53
2019-02-04T23:23:59.324Z,9.44
2019-02-04T23:26:28.885Z,9.40
2019-02-04T23:28:58.568Z,9.41
2019-02-04T23:31:28.132Z,9.42
2019-02-04T23:33:57.888Z,9.48
2019-02-04T23:36:27.562Z,9.53
2019-02-04T23:38:57.272Z,9.54
2019-02-04T23:41:26.821Z,9.58
2019-02-04T23:43:56.385Z,9.53
2019-02-04T23:46:26.024Z,9.50
2019-02-04T23:48:55.598Z,9.52
2019-02-04T23:51:25.645Z,9.54
2019-02-04T23:53:55.430Z,9.56
2019-02-04T23:56:25.091Z,9.53
2019-02-04T23:58:54.640Z,9.54
